Time;durP1;ratioP1;P1;durP2;ratioP2;P2;SDS_P1;SDS_P2;PMS_P1;PMS_P2;Temp;Humidity;BMP_temperature;BMP_pressure;BME280_temperature;BME280_humidity;BME280_pressure;Samples;Min_cycle;Max_cycle;Signal;HPM_P1;HPM_P2
2023/12/29 00:01:32;;;;;;;4.75;1.48;;;10.70;99.90;;;;;;5052801;28;20209;-64
2023/12/29 00:03:58;;;;;;;4.93;1.88;;;10.70;99.90;;;;;;5053059;28;20203;-54
2023/12/29 00:06:23;;;;;;;4.82;1.33;;;10.70;99.90;;;;;;5051398;28;20667;-53
2023/12/29 00:08:50;;;;;;;9.52;2.33;;;10.70;99.90;;;;;;5052903;28;20288;-63
2023/12/29 00:11:22;;;;;;;7.18;1.73;;;10.80;99.90;;;;;;5052824;28;20298;-67
2023/12/29 00:13:48;;;;;;;3.70;1.50;;;10.70;99.90;;;;;;5052417;28;20175;-65
2023/12/29 00:16:16;;;;;;;7.28;1.95;;;10.70;99.90;;;;;;5035403;28;20172;-67
2023/12/29 00:18:42;;;;;;;3.22;1.23;;;10.80;99.90;;;;;;5032746;28;20171;-67
2023/12/29 00:21:07;;;;;;;4.47;0.88;;;10.80;99.90;;;;;;5032568;28;20175;-67
2023/12/29 00:23:33;;;;;;;5.28;1.40;;;10.70;99.90;;;;;;5049316;28;20613;-67
2023/12/29 00:25:58;;;;;;;7.25;1.67;;;10.70;99.90;;;;;;5052721;28;20576;-65
2023/12/29 00:28:24;;;;;;;6.95;1.85;;;10.70;99.90;;;;;;5052135;28;20310;-65
2023/12/29 00:30:49;;;;;;;8.48;1.92;;;10.70;99.90;;;;;;5052098;28;20197;-60
2023/12/29 00:33:15;;;;;;;4.90;1.38;;;10.70;99.90;;;;;;5050850;28;20190;-64
2023/12/29 00:35:41;;;;;;;6.85;1.50;;;10.80;99.90;;;;;;5051992;28;20623;-65
2023/12/29 00:38:06;;;;;;;9.90;1.67;;;10.70;99.90;;;;;;5052503;28;20177;-63
2023/12/29 00:40:33;;;;;;;3.10;1.50;;;10.70;99.90;;;;;;5051826;28;20249;-65
2023/12/29 00:43:00;;;;;;;3.83;0.88;;;10.70;99.90;;;;;;5052332;28;20190;-64
2023/12/29 00:45:29;;;;;;;8.70;1.92;;;10.70;99.90;;;;;;5051210;28;20673;-65
2023/12/29 00:47:55;;;;;;;3.80;1.63;;;10.70;99.90;;;;;;5052096;28;20170;-64
2023/12/29 00:50:20;;;;;;;5.82;1.73;;;10.70;99.90;;;;;;5052073;28;20174;-66
2023/12/29 00:52:46;;;;;;;7.20;1.80;;;10.70;99.90;;;;;;5051426;28;20618;-65
2023/12/29 00:55:11;;;;;;;8.68;1.63;;;10.70;99.90;;;;;;5051328;28;20221;-65
2023/12/29 00:57:37;;;;;;;8.52;2.20;;;10.70;99.90;;;;;;5051591;28;20177;-65
2023/12/29 01:00:03;;;;;;;3.35;1.20;;;10.70;99.90;;;;;;5051586;28;20170;-57
2023/12/29 01:02:28;;;;;;;5.30;1.90;;;10.70;99.90;;;;;;5051975;28;20163;-64
2023/12/29 01:04:54;;;;;;;5.53;1.77;;;10.70;99.90;;;;;;5051427;28;20252;-54
2023/12/29 01:07:19;;;;;;;2.63;1.48;;;10.70;99.90;;;;;;5051483;28;20167;-64
2023/12/29 01:09:45;;;;;;;9.90;2.00;;;10.60;99.90;;;;;;5051429;28;20224;-64
2023/12/29 01:12:10;;;;;;;6.18;1.67;;;10.60;99.90;;;;;;5051476;28;20163;-63
2023/12/29 01:14:36;;;;;;;4.20;1.55;;;10.60;99.90;;;;;;5049014;28;20163;-65
2023/12/29 01:17:02;;;;;;;4.13;1.55;;;10.60;99.90;;;;;;5031537;28;20190;-59
2023/12/29 01:19:27;;;;;;;5.85;1.90;;;10.70;99.90;;;;;;5031895;28;20211;-65
2023/12/29 01:21:53;;;;;;;8.80;1.83;;;10.70;99.90;;;;;;5031324;28;20171;-59
2023/12/29 01:24:18;;;;;;;3.67;1.23;;;10.70;99.90;;;;;;5031246;28;20199;-64
2023/12/29 01:26:44;;;;;;;2.40;1.00;;;10.60;99.90;;;;;;5031319;28;20171;-66
2023/12/29 01:29:10;;;;;;;5.93;1.58;;;10.60;99.90;;;;;;5031324;28;20178;-65
2023/12/29 01:31:35;;;;;;;6.40;1.80;;;10.60;99.90;;;;;;5030003;28;20175;-63
2023/12/29 01:34:01;;;;;;;2.75;1.27;;;10.60;99.90;;;;;;5031816;28;20167;-64
2023/12/29 01:36:26;;;;;;;3.25;1.52;;;10.60;99.90;;;;;;5031597;28;20167;-60
2023/12/29 01:38:52;;;;;;;2.70;1.52;;;10.70;99.90;;;;;;5031212;28;20562;-56
2023/12/29 01:41:20;;;;;;;8.35;1.83;;;10.60;99.90;;;;;;5031251;28;20175;-53
2023/12/29 01:44:01;;;;;;;6.55;1.95;;;10.60;99.90;;;;;;5031304;28;20198;-53
2023/12/29 01:46:29;;;;;;;6.35;1.58;;;10.60;99.90;;;;;;5047401;28;20177;-53
2023/12/29 01:48:57;;;;;;;2.63;1.38;;;10.60;99.90;;;;;;5031097;28;20172;-54
2023/12/29 01:51:25;;;;;;;5.07;1.80;;;10.70;99.90;;;;;;5031366;28;20595;-53
2023/12/29 01:53:57;;;;;;;5.72;1.88;;;10.60;99.90;;;;;;5031068;28;20167;-64
2023/12/29 01:56:22;;;;;;;4.28;1.48;;;10.60;99.90;;;;;;5031059;28;20178;-63
2023/12/29 01:58:50;;;;;;;8.48;2.05;;;10.60;99.90;;;;;;5031008;28;20167;-60
2023/12/29 02:01:18;;;;;;;4.53;1.58;;;10.60;99.90;;;;;;5030987;28;20646;-66
2023/12/29 02:03:44;;;;;;;2.95;1.33;;;10.60;99.90;;;;;;5030883;28;20203;-65
2023/12/29 02:06:10;;;;;;;4.88;2.00;;;10.60;99.90;;;;;;5032685;28;20259;-60
2023/12/29 02:08:36;;;;;;;5.28;1.65;;;10.60;99.90;;;;;;5034847;28;20199;-62
2023/12/29 02:11:03;;;;;;;4.88;1.70;;;10.60;99.90;;;;;;5034845;28;20156;-62
2023/12/29 02:13:29;;;;;;;5.10;1.52;;;10.50;99.90;;;;;;5035224;28;20167;-54
2023/12/29 02:16:00;;;;;;;11.43;1.90;;;10.60;99.90;;;;;;5049519;28;20185;-55
2023/12/29 02:18:28;;;;;;;3.67;1.92;;;10.60;99.90;;;;;;5054628;28;20185;-53
2023/12/29 02:20:53;;;;;;;3.75;1.95;;;10.60;99.90;;;;;;5054581;28;20171;-53
2023/12/29 02:23:19;;;;;;;7.85;2.15;;;10.60;99.90;;;;;;5054443;28;20194;-54
2023/12/29 02:25:44;;;;;;;13.20;1.73;;;10.60;99.90;;;;;;5054506;28;20178;-54
2023/12/29 02:28:25;;;;;;;11.38;1.80;;;10.60;99.90;;;;;;5054558;28;20171;-54
2023/12/29 02:31:01;;;;;;;8.73;1.70;;;10.50;99.90;;;;;;5054423;28;20166;-65
2023/12/29 02:33:29;;;;;;;4.75;1.80;;;10.50;99.90;;;;;;5054774;28;20193;-64
2023/12/29 02:35:58;;;;;;;7.00;1.50;;;10.50;99.90;;;;;;5054622;28;20593;-65
2023/12/29 02:38:27;;;;;;;9.63;1.80;;;10.50;99.90;;;;;;5054295;28;20236;-61
2023/12/29 02:40:55;;;;;;;3.97;1.98;;;10.50;99.90;;;;;;5054518;28;20170;-66
2023/12/29 02:43:20;;;;;;;5.18;1.63;;;10.40;99.90;;;;;;5054131;28;20224;-60
2023/12/29 02:45:46;;;;;;;4.63;1.63;;;10.40;99.90;;;;;;5040259;28;20168;-65
2023/12/29 02:48:11;;;;;;;11.55;2.42;;;10.40;99.90;;;;;;5034224;28;20202;-54
2023/12/29 02:50:37;;;;;;;3.78;2.13;;;10.30;99.90;;;;;;5034102;28;20164;-57
2023/12/29 02:53:04;;;;;;;9.27;2.47;;;10.30;99.90;;;;;;5034064;28;20167;-54
2023/12/29 02:55:29;;;;;;;4.90;1.40;;;10.20;99.90;;;;;;5034357;28;20579;-55
2023/12/29 02:57:55;;;;;;;7.90;1.67;;;10.30;99.90;;;;;;5034772;28;20172;-55
2023/12/29 03:00:20;;;;;;;6.70;1.92;;;10.30;99.90;;;;;;5033290;28;20174;-54
2023/12/29 03:02:46;;;;;;;5.63;2.03;;;10.30;99.90;;;;;;5033844;28;20246;-55
2023/12/29 03:05:11;;;;;;;3.05;1.45;;;10.30;99.90;;;;;;5033845;28;20530;-55
2023/12/29 03:07:37;;;;;;;4.38;1.38;;;10.30;99.90;;;;;;5033837;28;20187;-54
2023/12/29 03:10:03;;;;;;;6.55;1.60;;;10.30;99.90;;;;;;5033834;28;20167;-54
2023/12/29 03:12:30;;;;;;;5.30;1.95;;;10.40;99.90;;;;;;5034194;28;20167;-53
2023/12/29 03:14:56;;;;;;;6.30;1.73;;;10.40;99.90;;;;;;5034123;28;20178;-53
2023/12/29 03:17:21;;;;;;;3.60;1.50;;;10.40;99.90;;;;;;5033463;28;20171;-53
2023/12/29 03:19:47;;;;;;;1.90;1.50;;;10.40;99.90;;;;;;5033512;28;20245;-54
2023/12/29 03:22:12;;;;;;;2.38;1.35;;;10.50;99.90;;;;;;5033489;28;20171;-53
2023/12/29 03:24:40;;;;;;;6.35;2.50;;;10.50;99.90;;;;;;5033398;28;20217;-53
2023/12/29 03:27:06;;;;;;;5.68;1.33;;;10.40;99.90;;;;;;5033425;28;20171;-54
2023/12/29 03:29:31;;;;;;;7.85;2.03;;;10.40;99.90;;;;;;5033341;28;20179;-54
2023/12/29 03:31:57;;;;;;;6.28;2.05;;;10.40;99.90;;;;;;5033816;28;20167;-53
2023/12/29 03:34:22;;;;;;;3.63;1.15;;;10.50;99.90;;;;;;5033313;28;20190;-53
2023/12/29 03:36:48;;;;;;;5.38;2.00;;;10.50;99.90;;;;;;5033217;28;20175;-53
2023/12/29 03:39:14;;;;;;;6.93;1.67;;;10.40;99.90;;;;;;5033148;28;20176;-53
2023/12/29 03:41:39;;;;;;;7.32;2.15;;;10.40;99.90;;;;;;5033136;28;20164;-53
2023/12/29 03:44:06;;;;;;;4.45;1.30;;;10.40;99.90;;;;;;5034630;28;20217;-53
2023/12/29 03:46:32;;;;;;;4.40;1.50;;;10.40;99.90;;;;;;5053058;28;20289;-54
2023/12/29 03:48:58;;;;;;;4.32;1.88;;;10.40;99.90;;;;;;5053485;28;20170;-53
2023/12/29 03:51:24;;;;;;;4.22;1.52;;;10.30;99.90;;;;;;5052882;28;20177;-53
2023/12/29 03:53:50;;;;;;;4.78;1.45;;;10.30;99.90;;;;;;5052693;28;20171;-53
2023/12/29 03:56:18;;;;;;;4.82;1.20;;;10.30;99.90;;;;;;5052762;28;20225;-55
2023/12/29 03:58:44;;;;;;;3.63;1.23;;;10.30;99.90;;;;;;5053023;28;20216;-55
2023/12/29 04:01:11;;;;;;;6.05;1.95;;;10.30;99.90;;;;;;5051474;28;20169;-52
2023/12/29 04:03:37;;;;;;;8.45;1.65;;;10.30;99.90;;;;;;5052668;28;20260;-53
2023/12/29 04:06:03;;;;;;;1.83;1.00;;;10.30;99.90;;;;;;5052862;28;20175;-53
2023/12/29 04:08:29;;;;;;;7.65;1.50;;;10.40;99.90;;;;;;5053278;28;20186;-53
2023/12/29 04:10:54;;;;;;;2.45;1.40;;;10.40;99.90;;;;;;5052588;28;20630;-52
2023/12/29 04:13:20;;;;;;;6.22;1.73;;;10.40;99.90;;;;;;5052479;28;20618;-65
2023/12/29 04:15:45;;;;;;;6.95;1.95;;;10.40;99.90;;;;;;5036913;28;20701;-66
2023/12/29 04:18:11;;;;;;;3.78;1.30;;;10.40;99.90;;;;;;5032492;28;20700;-64
2023/12/29 04:20:36;;;;;;;6.75;1.60;;;10.40;99.90;;;;;;5032468;28;20631;-64
2023/12/29 04:23:03;;;;;;;1.98;0.82;;;10.50;99.90;;;;;;5032231;28;20167;-64
2023/12/29 04:25:29;;;;;;;4.75;1.92;;;10.50;99.90;;;;;;5032846;28;20170;-65
2023/12/29 04:27:54;;;;;;;5.70;1.65;;;10.50;99.90;;;;;;5031903;28;20539;-65
2023/12/29 04:30:20;;;;;;;4.82;1.33;;;10.50;99.90;;;;;;5032037;28;20245;-65
2023/12/29 04:32:45;;;;;;;3.33;1.67;;;10.50;99.90;;;;;;5032114;28;20186;-53
2023/12/29 04:35:12;;;;;;;5.90;1.88;;;10.50;99.90;;;;;;5032188;28;20171;-53
2023/12/29 04:37:38;;;;;;;4.45;1.33;;;10.60;99.90;;;;;;5032292;28;20254;-53
2023/12/29 04:40:05;;;;;;;7.30;1.90;;;10.60;99.90;;;;;;5038332;28;20262;-52
2023/12/29 04:42:30;;;;;;;6.90;1.58;;;10.60;99.90;;;;;;5052343;28;20163;-52
2023/12/29 04:44:56;;;;;;;3.83;2.10;;;10.60;99.90;;;;;;5051852;28;20216;-53
2023/12/29 04:47:21;;;;;;;2.95;1.17;;;10.60;99.90;;;;;;5051909;28;20201;-53
2023/12/29 04:49:47;;;;;;;6.13;1.77;;;10.60;99.90;;;;;;5051824;28;20626;-52
2023/12/29 04:52:13;;;;;;;7.05;1.10;;;10.50;99.90;;;;;;5051997;28;20258;-53
2023/12/29 04:54:38;;;;;;;2.97;1.20;;;10.50;99.90;;;;;;5051615;28;20268;-52
2023/12/29 04:57:04;;;;;;;8.27;1.73;;;10.50;99.90;;;;;;5051648;28;20167;-55
2023/12/29 04:59:30;;;;;;;5.20;1.55;;;10.50;99.90;;;;;;5052381;28;20269;-55
2023/12/29 05:01:55;;;;;;;10.23;1.88;;;10.40;99.90;;;;;;5051635;28;20241;-67
2023/12/29 05:04:21;;;;;;;5.55;1.20;;;10.40;99.90;;;;;;5051480;28;20301;-68
2023/12/29 05:06:46;;;;;;;3.03;1.52;;;10.40;99.90;;;;;;5051474;28;20799;-66
2023/12/29 05:09:12;;;;;;;2.80;1.45;;;10.40;99.90;;;;;;5051464;28;20535;-59
2023/12/29 05:11:37;;;;;;;5.00;1.45;;;10.40;99.90;;;;;;5032089;28;20218;-63
2023/12/29 05:14:03;;;;;;;4.47;1.42;;;10.40;99.90;;;;;;5031433;28;20222;-62
2023/12/29 05:16:28;;;;;;;5.95;1.88;;;10.40;99.90;;;;;;5032014;28;20224;-65
2023/12/29 05:18:54;;;;;;;7.43;1.60;;;10.40;99.90;;;;;;5031356;28;20639;-65
2023/12/29 05:21:20;;;;;;;1.95;0.90;;;10.30;99.90;;;;;;5031399;28;20579;-66
2023/12/29 05:23:47;;;;;;;6.55;1.58;;;10.30;99.90;;;;;;5031549;28;20221;-54
2023/12/29 05:26:14;;;;;;;2.33;1.13;;;10.30;99.90;;;;;;5031218;28;20658;-58
2023/12/29 05:28:39;;;;;;;6.55;1.70;;;10.30;99.90;;;;;;5031494;28;20175;-66
2023/12/29 05:31:05;;;;;;;4.82;1.30;;;10.20;99.90;;;;;;5031306;28;20166;-60
2023/12/29 05:33:33;;;;;;;4.95;1.77;;;10.20;99.90;;;;;;5030466;28;20511;-68
2023/12/29 05:36:05;;;;;;;6.85;1.67;;;10.20;99.90;;;;;;5031676;28;20167;-54
2023/12/29 05:38:31;;;;;;;6.55;2.17;;;10.20;99.90;;;;;;5030050;28;20197;-64
2023/12/29 05:40:57;;;;;;;3.70;1.40;;;10.20;99.90;;;;;;5039634;28;20642;-64
2023/12/29 05:43:22;;;;;;;5.05;1.55;;;10.20;99.90;;;;;;5029400;28;20282;-67
2023/12/29 05:45:48;;;;;;;8.88;1.50;;;10.20;99.90;;;;;;5030957;28;20609;-55
2023/12/29 05:48:13;;;;;;;6.43;1.30;;;10.20;99.90;;;;;;5031328;28;20210;-64
2023/12/29 05:50:39;;;;;;;6.85;1.63;;;10.10;99.90;;;;;;5031172;28;20631;-66
2023/12/29 05:53:06;;;;;;;3.40;1.52;;;10.20;99.90;;;;;;5031304;28;20249;-67
2023/12/29 05:55:31;;;;;;;7.32;1.73;;;10.20;99.90;;;;;;5030891;28;20219;-60
2023/12/29 05:57:57;;;;;;;4.78;1.60;;;10.20;99.90;;;;;;5031549;28;20167;-58
2023/12/29 06:00:22;;;;;;;5.30;1.65;;;10.10;99.90;;;;;;5030773;28;20503;-62
2023/12/29 06:02:48;;;;;;;4.40;1.35;;;10.10;99.90;;;;;;5030842;28;20572;-62
2023/12/29 06:05:14;;;;;;;5.47;1.60;;;10.10;99.90;;;;;;5030785;28;20203;-61
2023/12/29 06:07:40;;;;;;;6.32;1.35;;;10.10;99.90;;;;;;5030887;28;20510;-62
2023/12/29 06:10:06;;;;;;;11.07;2.03;;;10.10;99.90;;;;;;5039240;28;20178;-63
2023/12/29 06:12:31;;;;;;;5.38;1.75;;;10.00;99.90;;;;;;5049528;28;20175;-64
2023/12/29 06:14:57;;;;;;;2.72;1.38;;;10.10;99.90;;;;;;5051224;28;20163;-62
2023/12/29 06:17:22;;;;;;;4.28;1.40;;;10.10;99.90;;;;;;5050652;28;20685;-61
2023/12/29 06:19:48;;;;;;;5.93;1.90;;;10.00;99.90;;;;;;5050990;28;20175;-60
2023/12/29 06:22:14;;;;;;;3.83;1.40;;;10.00;99.90;;;;;;5050578;28;20167;-62
2023/12/29 06:24:40;;;;;;;6.78;2.90;;;10.10;99.90;;;;;;5050550;28;20285;-60
2023/12/29 06:27:11;;;;;;;9.10;1.55;;;10.00;99.90;;;;;;5050655;28;20166;-66
2023/12/29 06:29:37;;;;;;;6.63;1.83;;;10.00;99.90;;;;;;5050600;28;20163;-63
2023/12/29 06:32:03;;;;;;;6.53;1.40;;;10.00;99.90;;;;;;5050643;28;20228;-56
2023/12/29 06:34:29;;;;;;;5.18;1.30;;;10.00;99.90;;;;;;5051000;28;20167;-59
2023/12/29 06:36:55;;;;;;;13.18;1.40;;;10.00;99.90;;;;;;5050559;28;20177;-61
2023/12/29 06:39:20;;;;;;;10.57;1.90;;;10.00;99.90;;;;;;5049629;28;20180;-63
2023/12/29 06:41:46;;;;;;;3.67;1.35;;;10.00;99.90;;;;;;5049781;28;20174;-53
2023/12/29 06:44:12;;;;;;;4.43;1.30;;;10.10;99.90;;;;;;5050403;28;20605;-59
2023/12/29 06:46:38;;;;;;;3.45;0.95;;;10.00;99.90;;;;;;5050543;28;20174;-62
2023/12/29 06:49:03;;;;;;;3.05;0.88;;;10.10;99.90;;;;;;5050694;28;20175;-56
2023/12/29 06:51:29;;;;;;;4.97;1.40;;;10.10;99.90;;;;;;5051452;28;20165;-56
2023/12/29 06:53:54;;;;;;;5.45;1.30;;;10.10;99.90;;;;;;5054093;28;20610;-55
2023/12/29 06:56:20;;;;;;;5.18;1.20;;;10.10;99.90;;;;;;5053988;28;20214;-53
2023/12/29 06:58:46;;;;;;;5.80;1.77;;;10.00;99.90;;;;;;5054221;28;20159;-53
2023/12/29 07:01:12;;;;;;;6.97;2.28;;;10.10;99.90;;;;;;5053861;28;20171;-53
2023/12/29 07:03:37;;;;;;;5.85;1.75;;;10.10;99.90;;;;;;5053742;28;20285;-52
2023/12/29 07:06:03;;;;;;;3.42;1.58;;;10.10;99.90;;;;;;5053794;28;20163;-52
2023/12/29 07:08:29;;;;;;;3.92;1.05;;;10.10;99.90;;;;;;5054318;28;20166;-55
2023/12/29 07:10:55;;;;;;;3.05;1.55;;;10.20;99.90;;;;;;5037297;28;20256;-52
2023/12/29 07:13:20;;;;;;;5.40;1.90;;;10.10;99.90;;;;;;5033884;28;20168;-56
2023/12/29 07:15:49;;;;;;;4.93;1.58;;;10.10;99.90;;;;;;5033742;28;20171;-55
2023/12/29 07:18:15;;;;;;;6.22;1.65;;;10.20;99.90;;;;;;5033888;28;20160;-52
2023/12/29 07:20:42;;;;;;;13.60;1.98;;;10.20;99.90;;;;;;5034119;28;20179;-56
2023/12/29 07:23:07;;;;;;;3.22;1.73;;;10.10;99.90;;;;;;5033508;28;20159;-52
2023/12/29 07:25:33;;;;;;;4.35;1.48;;;10.10;99.90;;;;;;5033503;28;20205;-56
2023/12/29 07:27:59;;;;;;;6.18;1.52;;;10.20;99.90;;;;;;5033964;28;20294;-58
2023/12/29 07:30:25;;;;;;;7.45;1.48;;;10.20;99.90;;;;;;5033434;28;20180;-65
2023/12/29 07:32:51;;;;;;;6.72;1.83;;;10.20;99.90;;;;;;5032058;28;20623;-61
2023/12/29 07:35:19;;;;;;;7.03;1.45;;;10.20;99.90;;;;;;5033214;28;20261;-61
2023/12/29 07:37:45;;;;;;;3.55;1.10;;;10.30;99.90;;;;;;5033554;28;20183;-65
2023/12/29 07:40:12;;;;;;;3.42;1.15;;;10.30;99.90;;;;;;5041825;28;20167;-62
2023/12/29 07:42:39;;;;;;;3.15;1.35;;;10.30;99.90;;;;;;5053086;28;20528;-53
2023/12/29 07:45:05;;;;;;;4.13;0.95;;;10.30;99.90;;;;;;5052988;28;20292;-57
2023/12/29 07:47:34;;;;;;;4.97;1.20;;;10.30;99.90;;;;;;5052997;28;20684;-59
2023/12/29 07:49:59;;;;;;;7.13;0.98;;;10.30;99.90;;;;;;5053367;28;20178;-56
2023/12/29 07:52:25;;;;;;;0.68;0.68;;;10.30;99.90;;;;;;5052864;28;20589;-53
2023/12/29 07:54:50;;;;;;;3.25;1.25;;;10.20;99.90;;;;;;5052688;28;20218;-53
2023/12/29 07:57:16;;;;;;;3.50;0.80;;;10.20;99.90;;;;;;5052849;28;20199;-54
2023/12/29 07:59:41;;;;;;;4.18;1.25;;;10.10;99.90;;;;;;5052731;28;20162;-58
2023/12/29 08:02:07;;;;;;;2.53;1.10;;;10.10;99.90;;;;;;5052754;28;20262;-53
2023/12/29 08:04:33;;;;;;;2.53;1.15;;;10.00;99.90;;;;;;5051613;28;20293;-53
2023/12/29 08:06:58;;;;;;;3.97;1.60;;;9.90;99.90;;;;;;5051831;28;20253;-53
2023/12/29 08:09:25;;;;;;;3.88;1.58;;;10.00;99.90;;;;;;5047749;28;20183;-66
2023/12/29 08:11:51;;;;;;;3.70;1.63;;;9.80;99.90;;;;;;5032684;28;20164;-66
2023/12/29 08:14:17;;;;;;;6.90;1.45;;;9.80;99.90;;;;;;5032662;28;20167;-65
2023/12/29 08:16:42;;;;;;;2.40;1.20;;;9.80;99.90;;;;;;5032581;28;20209;-67
2023/12/29 08:19:09;;;;;;;4.18;1.17;;;9.80;99.90;;;;;;5047423;28;20202;-67
2023/12/29 08:21:35;;;;;;;5.03;1.38;;;9.70;99.90;;;;;;5052165;28;20242;-53
2023/12/29 08:24:01;;;;;;;2.83;1.20;;;9.70;99.90;;;;;;5052290;28;20316;-53
2023/12/29 08:26:26;;;;;;;6.60;1.60;;;9.70;99.90;;;;;;5052802;28;20174;-53
2023/12/29 08:28:52;;;;;;;6.95;1.77;;;9.70;99.90;;;;;;5052371;28;20552;-54
2023/12/29 08:31:19;;;;;;;4.10;1.45;;;9.70;99.90;;;;;;5052199;28;20167;-54
2023/12/29 08:33:45;;;;;;;6.10;1.98;;;9.70;99.90;;;;;;5052249;28;20642;-53
2023/12/29 08:36:12;;;;;;;5.75;1.20;;;9.70;99.90;;;;;;5052329;28;20175;-53
2023/12/29 08:38:38;;;;;;;7.78;1.50;;;9.70;99.90;;;;;;5052020;28;20166;-54
2023/12/29 08:41:04;;;;;;;4.13;1.48;;;9.70;99.90;;;;;;5033614;28;20182;-53
2023/12/29 08:43:30;;;;;;;8.13;1.58;;;9.70;99.90;;;;;;5032779;28;20210;-53
2023/12/29 08:45:55;;;;;;;7.20;1.60;;;9.70;99.90;;;;;;5032610;28;20499;-53
2023/12/29 08:48:21;;;;;;;3.40;1.33;;;9.70;99.90;;;;;;5032039;28;20175;-53
2023/12/29 08:50:46;;;;;;;4.53;1.55;;;9.70;99.90;;;;;;5031885;28;20163;-64
2023/12/29 08:53:12;;;;;;;4.72;1.17;;;9.70;99.90;;;;;;5031790;28;20254;-65
2023/12/29 08:55:38;;;;;;;5.20;1.75;;;9.70;99.90;;;;;;5031574;28;20298;-65
2023/12/29 08:58:03;;;;;;;4.28;1.85;;;9.70;99.90;;;;;;5031973;28;20703;-67
2023/12/29 09:00:30;;;;;;;9.18;1.10;;;9.70;99.90;;;;;;5032175;28;20174;-67
2023/12/29 09:02:56;;;;;;;6.00;1.83;;;9.70;99.90;;;;;;5031986;28;20171;-62
2023/12/29 09:05:22;;;;;;;2.20;1.58;;;9.70;99.90;;;;;;5031760;28;20211;-67
2023/12/29 09:07:47;;;;;;;5.68;1.83;;;9.70;99.90;;;;;;5031659;28;20175;-66
2023/12/29 09:10:14;;;;;;;6.82;1.63;;;9.70;99.90;;;;;;5044832;28;20174;-66
2023/12/29 09:12:40;;;;;;;5.35;1.80;;;9.70;99.90;;;;;;5051331;28;20166;-67
2023/12/29 09:15:06;;;;;;;3.67;1.05;;;9.70;99.90;;;;;;5051172;28;20593;-66
2023/12/29 09:17:32;;;;;;;6.75;1.80;;;9.60;99.90;;;;;;5051381;28;20166;-67
2023/12/29 09:19:57;;;;;;;4.97;1.40;;;9.70;99.90;;;;;;5051822;28;20163;-67
2023/12/29 09:22:23;;;;;;;2.33;1.10;;;9.70;99.90;;;;;;5051222;28;20178;-66
2023/12/29 09:24:49;;;;;;;2.83;1.38;;;9.70;99.90;;;;;;5051257;28;20217;-66
2023/12/29 09:27:14;;;;;;;2.38;1.13;;;9.70;99.90;;;;;;5051300;28;20162;-54
2023/12/29 09:29:40;;;;;;;5.60;1.42;;;9.80;99.90;;;;;;5051278;28;20171;-54
2023/12/29 09:32:06;;;;;;;1.92;0.88;;;9.80;99.90;;;;;;5051287;28;20219;-55
2023/12/29 09:34:31;;;;;;;1.98;0.88;;;9.80;99.90;;;;;;5051159;28;20534;-53
2023/12/29 09:36:57;;;;;;;2.67;1.20;;;9.80;99.90;;;;;;5051747;28;20171;-54
2023/12/29 09:39:23;;;;;;;3.85;1.02;;;9.90;99.90;;;;;;5044761;28;20603;-53
2023/12/29 09:41:52;;;;;;;3.83;1.77;;;9.90;99.90;;;;;;5030929;28;20269;-53
2023/12/29 09:44:20;;;;;;;5.47;1.48;;;9.90;99.90;;;;;;5030666;28;20693;-53
2023/12/29 09:46:50;;;;;;;2.80;1.08;;;10.00;99.90;;;;;;5031432;28;20182;-54
2023/12/29 09:49:18;;;;;;;1.67;1.20;;;10.00;99.90;;;;;;5031120;28;20164;-53
2023/12/29 09:51:44;;;;;;;3.45;1.55;;;10.10;99.90;;;;;;5031349;28;20179;-62
2023/12/29 09:54:10;;;;;;;5.00;1.60;;;10.10;99.90;;;;;;5030842;28;20264;-55
2023/12/29 09:56:37;;;;;;;3.35;1.67;;;10.10;99.90;;;;;;5031271;28;20180;-55
2023/12/29 09:59:03;;;;;;;2.10;1.17;;;10.20;99.90;;;;;;5031054;28;20182;-53
2023/12/29 10:01:30;;;;;;;2.85;1.48;;;10.20;99.90;;;;;;5031507;28;20175;-54
2023/12/29 10:03:56;;;;;;;2.75;1.00;;;12.20;99.90;;;;;;5031540;28;20206;-53
2023/12/29 10:06:24;;;;;;;5.75;1.40;;;10.30;99.90;;;;;;5030862;28;20168;-57
2023/12/29 10:08:51;;;;;;;3.13;1.05;;;10.40;99.90;;;;;;5031094;28;20318;-54
2023/12/29 10:11:22;;;;;;;3.80;1.33;;;10.40;99.90;;;;;;5030851;28;20599;-58
2023/12/29 10:13:50;;;;;;;4.85;1.20;;;10.50;99.90;;;;;;5030896;28;20168;-53
2023/12/29 10:16:27;;;;;;;1.92;1.10;;;10.50;99.90;;;;;;5030840;28;20178;-53
2023/12/29 10:19:10;;;;;;;6.30;1.23;;;10.60;99.90;;;;;;5031032;28;20167;-53
2023/12/29 10:21:56;;;;;;;1.95;1.25;;;10.60;99.90;;;;;;5031061;28;20580;-54
2023/12/29 10:24:22;;;;;;;0.70;0.70;;;10.60;99.90;;;;;;5030643;28;20199;-53
2023/12/29 10:26:49;;;;;;;1.02;0.80;;;10.70;99.90;;;;;;5032070;28;20222;-53
2023/12/29 10:29:15;;;;;;;3.22;1.27;;;10.70;99.90;;;;;;5034667;28;20186;-53
2023/12/29 10:31:41;;;;;;;3.40;0.90;;;10.80;99.90;;;;;;5034519;28;20164;-55
2023/12/29 10:34:30;;;;;;;2.90;1.30;;;10.80;99.90;;;;;;5034514;28;20631;-54
2023/12/29 10:37:01;;;;;;;2.25;0.80;;;10.90;99.90;;;;;;5035190;28;20262;-53
2023/12/29 10:39:27;;;;;;;3.28;0.90;;;10.90;99.90;;;;;;5043391;28;20170;-53
2023/12/29 10:42:05;;;;;;;5.00;1.02;;;11.10;99.90;;;;;;5054259;28;20522;-56
2023/12/29 10:44:30;;;;;;;2.53;1.30;;;11.10;99.90;;;;;;5054463;28;20206;-53
2023/12/29 10:46:56;;;;;;;2.28;1.25;;;11.10;99.90;;;;;;5054028;28;20241;-54
2023/12/29 10:49:22;;;;;;;17.15;11.30;;;11.20;99.90;;;;;;5054329;28;20171;-53
2023/12/29 10:51:48;;;;;;;3.72;1.13;;;11.20;99.90;;;;;;5054044;28;20167;-53
2023/12/29 10:54:23;;;;;;;1.77;0.82;;;11.30;99.90;;;;;;5053822;28;20222;-52
2023/12/29 10:57:02;;;;;;;2.83;1.30;;;11.30;99.90;;;;;;5053939;28;20171;-53
2023/12/29 10:59:28;;;;;;;1.40;0.63;;;11.30;99.90;;;;;;5054332;28;20703;-53
2023/12/29 11:01:53;;;;;;;11.25;1.70;;;11.30;99.90;;;;;;5053876;28;20249;-52
2023/12/29 11:04:22;;;;;;;2.72;1.00;;;11.40;99.90;;;;;;5052559;28;20206;-53
2023/12/29 11:06:50;;;;;;;1.17;0.55;;;11.40;99.90;;;;;;5053832;28;20171;-52
2023/12/29 11:09:27;;;;;;;2.03;0.95;;;11.40;99.90;;;;;;5046368;28;20167;-53
2023/12/29 11:11:53;;;;;;;6.53;1.17;;;11.50;99.90;;;;;;5033675;28;20163;-52
2023/12/29 11:14:20;;;;;;;8.50;1.45;;;11.60;99.90;;;;;;5033628;28;20220;-53
2023/12/29 11:16:46;;;;;;;2.72;0.75;;;11.60;99.90;;;;;;5033861;28;20179;-55
2023/12/29 11:19:13;;;;;;;3.70;1.38;;;11.70;99.90;;;;;;5033273;28;20210;-51
2023/12/29 11:21:40;;;;;;;4.22;1.00;;;11.80;99.90;;;;;;5033780;28;20171;-52
2023/12/29 11:24:07;;;;;;;3.53;1.00;;;11.80;99.90;;;;;;5033681;28;20257;-52
2023/12/29 11:26:33;;;;;;;4.93;1.15;;;11.80;99.90;;;;;;5033586;28;20198;-60
2023/12/29 11:28:59;;;;;;;2.28;0.82;;;11.80;99.90;;;;;;5034146;28;20175;-57
2023/12/29 11:31:25;;;;;;;2.90;1.10;;;11.90;99.90;;;;;;5034159;28;20699;-61
2023/12/29 11:34:09;;;;;;;3.17;0.77;;;11.80;99.90;;;;;;5033282;28;20512;-60
2023/12/29 11:36:40;;;;;;;1.10;0.70;;;11.90;99.90;;;;;;5033290;28;20171;-53
2023/12/29 11:39:27;;;;;;;2.10;0.90;;;11.90;99.90;;;;;;5041043;28;20186;-60
2023/12/29 11:42:19;;;;;;;3.10;0.88;;;11.90;99.90;;;;;;5037590;28;20699;-52
2023/12/29 11:44:45;;;;;;;0.90;0.73;;;11.80;99.90;;;;;;5033315;28;20664;-54
2023/12/29 11:47:35;;;;;;;2.67;1.08;;;11.80;99.90;;;;;;5033345;28;20178;-63
2023/12/29 11:50:01;;;;;;;2.65;1.05;;;11.80;99.90;;;;;;5032490;28;20184;-60
2023/12/29 11:52:41;;;;;;;1.83;0.95;;;11.70;99.90;;;;;;5033348;28;20570;-57
2023/12/29 11:55:09;;;;;;;1.77;0.98;;;11.70;99.90;;;;;;5032858;28;20226;-64
2023/12/29 11:57:36;;;;;;;0.80;0.73;;;11.70;99.90;;;;;;5032468;28;20163;-64
2023/12/29 12:00:05;;;;;;;1.55;0.68;;;11.70;99.90;;;;;;5032775;28;20226;-61
2023/12/29 12:02:31;;;;;;;2.45;1.00;;;11.60;99.90;;;;;;5033081;28;20590;-63
2023/12/29 12:04:56;;;;;;;2.03;1.02;;;11.60;99.90;;;;;;5033368;28;20247;-65
2023/12/29 12:07:22;;;;;;;5.00;1.15;;;11.60;99.90;;;;;;5032666;28;20172;-65
2023/12/29 12:09:51;;;;;;;4.97;1.70;;;11.60;99.90;;;;;;5046116;28;20180;-63
2023/12/29 12:12:40;;;;;;;0.95;0.73;;;11.60;99.90;;;;;;5052815;28;20213;-64
2023/12/29 12:15:31;;;;;;;3.78;0.70;;;11.60;99.90;;;;;;5052819;28;20171;-61
2023/12/29 12:17:58;;;;;;;6.45;0.82;;;11.50;99.90;;;;;;5052105;28;20159;-65
2023/12/29 12:20:25;;;;;;;2.03;1.00;;;11.50;99.90;;;;;;5052126;28;20170;-63
2023/12/29 12:23:00;;;;;;;3.50;0.90;;;11.50;99.90;;;;;;5052031;28;20621;-63
2023/12/29 12:25:29;;;;;;;1.77;0.60;;;11.40;99.90;;;;;;5052352;28;20696;-63
2023/12/29 12:27:58;;;;;;;3.03;0.95;;;11.40;99.90;;;;;;5052414;28;20166;-63
2023/12/29 12:30:24;;;;;;;2.53;0.80;;;11.40;99.90;;;;;;5048589;28;20626;-58
2023/12/29 12:33:03;;;;;;;0.75;0.60;;;11.40;99.90;;;;;;5051531;28;20174;-63
2023/12/29 12:35:29;;;;;;;2.28;0.93;;;11.30;99.90;;;;;;5052378;28;20572;-64
2023/12/29 12:38:20;;;;;;;1.05;0.38;;;11.30;99.90;;;;;;5051476;28;20652;-63
2023/12/29 12:40:46;;;;;;;0.77;0.50;;;11.40;99.90;;;;;;5051704;28;20181;-63
2023/12/29 12:43:17;;;;;;;0.68;0.30;;;11.30;99.90;;;;;;5051621;28;20166;-64
2023/12/29 12:45:52;;;;;;;0.90;0.70;;;11.20;99.90;;;;;;5051458;28;20170;-64
2023/12/29 12:48:45;;;;;;;1.73;0.73;;;11.30;99.90;;;;;;5051164;28;20173;-64